• Join FlightAware (Why Join?)
  • Login
  • US Flag 
05:15AM EST


 

Airport Tracker/Info


-or-


 

Live Flight TrackerFlight Track Log ✈ UAL139 ✈ 28-Aug-2013 ✈ KDEN - RJAA / NRT

Flight Track Log - Related Links

Times and Time Zones

All times are in EDT time to prevent confusion due to time zone crossing. See the UAL139 flight status page for this flight to view local times or setup timezone preferences in your user account.

Time Position Orientation Groundspeed Altitude Reporting Facility
EDT Latitude Longitude Course Direction KTS MPH feet Rate Location/Type
02:50PM 39.8410 -104.7330 180° South 202 232 5,500  Level FlightAware
02:50PM 39.8420 -104.7560 273° West 202 232 6,300 2,040 Climbing FlightAware
02:50PM 39.8430 -104.7660 277° West 212 244 6,400 840 Climbing FlightAware
02:51PM 39.8460 -104.7730 299° West 219 252 6,500 360 Climbing FlightAware
02:51PM 39.8610 -104.8010 305° West 254 292 6,600 780 Climbing FlightAware
02:51PM 39.8740 -104.8270 303° West 269 310 7,100 1,500 Climbing FlightAware
02:52PM 39.8880 -104.8560 302° West 287 330 7,600 1,860 Climbing FlightAware
02:52PM 39.8970 -104.8740 303° West 289 333 8,100 2,400 Climbing FlightAware
02:52PM 39.9020 -104.8860 299° West 291 335 8,400 2,460 Climbing FlightAware
02:52PM 39.9080 -104.9130 286° West 294 338 9,100 2,460 Climbing FlightAware
02:53PM 39.9110 -104.9480 276° West 297 342 9,900 2,040 Climbing FlightAware
02:53PM 39.9170 -105.0080 277° West 319 367 10,900 1,620 Climbing FlightAware
02:54PM 39.9230 -105.0840 276° West 350 403 11,800 1,800 Climbing FlightAware
02:54PM 39.9300 -105.1530 278° West 356 410 13,100 2,160 Climbing FlightAware
02:55PM 39.9370 -105.2300 277° West 368 423 14,300 2,100 Climbing FlightAware
02:55PM 39.9430 -105.3080 276° West 376 433 15,600 1,980 Climbing FlightAware
02:56PM 39.9430 -105.4020 270° West 387 445 16,900 2,220 Climbing FlightAware
02:57PM 39.9320 -105.4840 260° West 383 441 18,500 2,340 Climbing FlightAware
02:57PM 39.9250 -105.5600 263° West 389 448 19,600 1,680 Climbing FlightAware
02:58PM 39.9190 -105.6400 264° West 404 465 20,400 1,680 Climbing FlightAware
02:58PM 39.9230 -105.7210 274° West 408 470 21,500 1,680 Climbing FlightAware
02:59PM 39.9460 -105.8010 291° West 420 483 22,300 1,440 Climbing FlightAware
03:00PM 39.9720 -105.8850 292° West 430 495 23,200 1,740 Climbing FlightAware
03:00PM 40.0010 -105.9540 299° West 428 493 24,300 1,680 Climbing FlightAware
03:01PM 40.0360 -106.0310 301° West 439 505 25,000 1,560 Climbing FlightAware
03:01PM 40.0690 -106.1030 301° West 439 505 26,000 1,620 Climbing FlightAware
03:02PM 40.1080 -106.1850 302° West 444 511 26,900 1,440 Climbing FlightAware
03:02PM 40.1420 -106.2560 302° West 446 513 27,700 1,380 Climbing FlightAware
03:03PM 40.1810 -106.3400 301° West 451 519 28,500 1,320 Climbing FlightAware
03:03PM 40.2140 -106.4100 302° West 454 522 29,200 1,320 Climbing FlightAware
03:04PM 40.2560 -106.4990 302° West 460 529 30,000 1,080 Climbing FlightAware
03:05PM 40.2950 -106.5820 302° West 469 540 30,500 600 Climbing FlightAware
03:05PM 40.3440 -106.6860 302° West 470 541 30,900 1,020 Climbing FlightAware
03:06PM 40.3930 -106.7920 301° West 473 544 32,100 900 Climbing FlightAware
03:07PM 40.4310 -106.8730 302° West 473 544 32,100 540 Level FlightAware
03:07PM 40.4760 -106.9710 301° West 486 559 32,800 540 Climbing FlightAware
03:08PM 40.5100 -107.0440 302° West 486 559 32,800 1,260 Level FlightAware
03:08PM 40.5650 -107.1640 301° West 495 570 34,300 1,980 Climbing FlightAware
03:09PM 40.6090 -107.2590 301° West 646 743 35,200 1,200 Climbing FlightAware
03:10PM 40.6370 -107.3200 301° West 488 562 35,700 1,140 Climbing FlightAware
03:10PM 40.6880 -107.4310 301° West 482 555 36,500 1,260 Climbing FlightAware
03:11PM 40.7100 -107.4790 301° West 479 551 36,900 420 Climbing FlightAware
03:11PM 40.7610 -107.5920 301° West 477 549 37,000 60 Climbing FlightAware
03:12PM 40.8230 -107.7300 301° West 479 551 37,000  Level FlightAware
03:13PM 40.8550 -107.8000 301° West 483 556 37,000  Level FlightAware
03:14PM 40.9140 -107.9310 301° West 485 558 37,000  Level FlightAware
03:14PM 40.9490 -108.0100 300° West 489 563 37,000 360 Level FlightAware
03:15PM 40.9900 -108.1010 301° West 488 562 37,400 360 Climbing FlightAware
03:15PM 41.0250 -108.1820 300° West 488 562 37,500 60 Climbing FlightAware
03:16PM 41.0580 -108.2570 300° West 488 562 37,500  Level FlightAware
03:17PM 41.0920 -108.3360 300° West 488 562 37,500  Level FlightAware
03:17PM 41.1270 -108.4160 300° West 488 562 37,500  Level FlightAware
03:18PM 41.1600 -108.4910 300° West 488 562 37,500  Level FlightAware
03:18PM 41.1940 -108.5700 300° West 488 562 37,500  Level FlightAware
03:19PM 41.2290 -108.6500 300° West 488 562 37,500  Level FlightAware
03:19PM 41.2630 -108.7290 300° West 488 562 37,500  Level FlightAware
03:20PM 41.2980 -108.8090 300° West 488 562 37,500  Level FlightAware
03:21PM 41.3330 -108.8910 300° West 488 562 37,500  Level FlightAware
03:21PM 41.3680 -108.9710 300° West 488 562 37,500  Level FlightAware
03:22PM 41.4020 -109.0500 300° West 488 562 37,500  Level FlightAware
03:23PM 41.4370 -109.1300 300° West 488 562 37,500  Level FlightAware
03:23PM 41.4710 -109.2100 300° West 488 562 37,500  Level FlightAware
03:24PM 41.5060 -109.2900 300° West 488 562 37,500  Level FlightAware
03:25PM 41.5520 -109.3960 300° West 488 562 37,500 300 Level FlightAware
03:25PM 41.6906 -109.7200 300° West 480 552 38,000 240 Climbing Salt Lake Center
03:26PM 41.7564 -109.8739 300° West 479 551 38,000  Level Salt Lake Center
03:32PM 42.1280 -110.7090 300° West 483 556 38,000  Level FlightAware
03:32PM 42.1790 -110.8010 307° West 483 556 38,000  Level FlightAware
03:33PM 42.2240 -110.8820 307° West 483 556 38,000  Level FlightAware
03:33PM 42.2680 -110.9610 307° West 485 558 38,000  Level FlightAware
03:34PM 42.3180 -111.0530 306° West 485 558 38,000  Level FlightAware
03:35PM 42.3580 -111.1280 306° West 485 558 38,000  Level FlightAware
03:35PM 42.3990 -111.2040 306° West 485 558 38,000  Level FlightAware
03:36PM 42.4700 -111.3280 308° West 483 556 38,000  Level FlightAware
03:36PM 42.5150 -111.4100 307° West 481 554 38,000  Level FlightAware
03:37PM 42.5342 -111.4450 307° West 482 555 38,000  Level FlightAware ADS-B
03:37PM 42.5751 -111.5200 307° West 481 554 38,000  Level FlightAware ADS-B
03:38PM 42.6581 -111.6730 306° West 480 552 38,000  Level FlightAware ADS-B
03:39PM 42.6992 -111.7490 306° West 481 554 38,000  Level FlightAware ADS-B
03:39PM 42.7389 -111.8220 307° West 484 557 38,000  Level FlightAware ADS-B
03:40PM 42.7805 -111.9000 306° West 486 559 38,000  Level FlightAware ADS-B
03:40PM 42.8212 -111.9750 307° West 484 557 38,000  Level FlightAware ADS-B
03:41PM 42.8647 -112.0570 306° West 481 554 38,000  Level FlightAware ADS-B
03:42PM 42.8920 -112.1120 304° West 480 552 38,000  Level FlightAware
03:42PM 42.9668 -112.2480 307° West 488 562 38,000  Level FlightAware ADS-B
03:43PM 43.0075 -112.3250 306° West 487 560 38,000  Level FlightAware ADS-B
03:44PM 43.0120 -112.3370 297° West 480 552 38,000  Level FlightAware
03:44PM 43.0530 -112.4140 306° West 480 552 38,000  Level FlightAware
03:45PM 43.0930 -112.4890 306° West 480 552 38,000  Level FlightAware
03:45PM 43.1330 -112.5650 306° West 480 552 38,000  Level FlightAware
03:46PM 43.1740 -112.6420 306° West 480 552 38,000  Level FlightAware
03:46PM 43.2919 -112.8370 310° West 468 539 38,000  Level FlightAware ADS-B
03:47PM 43.3535 -112.9600 305° West 469 540 38,000  Level FlightAware ADS-B
03:48PM 43.4110 -113.0770 304° West 472 543 38,000  Level FlightAware
03:48PM 43.4480 -113.1550 303° West 469 540 38,000  Level FlightAware
03:49PM 43.4890 -113.2430 303° West 470 541 38,000  Level FlightAware
03:50PM 43.5350 -113.3380 304° West 474 545 38,000  Level FlightAware
03:50PM 43.5830 -113.4320 305° West 476 548 38,000  Level FlightAware
03:51PM 43.6260 -113.5170 305° West 480 552 38,000  Level FlightAware
03:51PM 43.6680 -113.5980 306° West 483 556 38,000  Level FlightAware
03:52PM 43.7130 -113.6880 305° West 483 556 38,000  Level FlightAware
03:52PM 43.7560 -113.7730 305° West 482 555 38,000  Level FlightAware
03:53PM 43.8010 -113.8620 305° West 483 556 38,000  Level FlightAware
03:54PM 43.8350 -113.9300 305° West 484 557 38,000  Level FlightAware
03:54PM 43.8820 -114.0230 305° West 480 552 38,000  Level FlightAware
03:55PM 43.9300 -114.1180 305° West 477 549 38,000  Level FlightAware
03:55PM 43.9710 -114.2020 304° West 476 548 38,000  Level FlightAware
03:56PM 44.0170 -114.2940 305° West 474 545 38,000  Level FlightAware
03:56PM 44.0560 -114.3730 305° West 477 549 38,000  Level FlightAware
03:57PM 44.1010 -114.4640 305° West 473 544 38,000  Level FlightAware
03:58PM 44.1480 -114.5600 304° West 473 544 38,000  Level FlightAware
03:58PM 44.1870 -114.6400 304° West 474 545 38,000  Level FlightAware
03:59PM 44.2320 -114.7310 305° West 476 548 38,000  Level FlightAware
03:59PM 44.2750 -114.8200 304° West 475 547 38,000  Level FlightAware
04:00PM 44.3160 -114.9040 304° West 475 547 38,000  Level FlightAware
04:01PM 44.3600 -114.9940 304° West 475 547 38,000  Level FlightAware
04:01PM 44.4040 -115.0860 304° West 476 548 38,000  Level FlightAware
04:02PM 44.4480 -115.1780 304° West 478 550 38,000  Level FlightAware
04:02PM 44.4900 -115.2650 304° West 478 550 38,000  Level FlightAware
04:03PM 44.5310 -115.3520 303° West 479 551 38,000  Level FlightAware
04:04PM 44.5790 -115.4520 304° West 479 551 38,000  Level FlightAware
04:04PM 44.6180 -115.5330 304° West 478 550 38,000  Level FlightAware
04:05PM 44.6630 -115.6270 304° West 478 550 38,000  Level FlightAware
04:05PM 44.7030 -115.7140 303° West 478 550 38,000  Level FlightAware
04:06PM 44.7480 -115.8080 304° West 477 549 38,000  Level FlightAware
04:06PM 44.7890 -115.8960 303° West 478 550 38,000  Level FlightAware
04:07PM 44.8320 -115.9880 303° West 480 552 38,000  Level FlightAware
04:08PM 44.8750 -116.0800 303° West 479 551 38,000  Level FlightAware
04:08PM 44.9150 -116.1650 304° West 479 551 38,000  Level FlightAware
04:09PM 44.9590 -116.2620 303° West 479 551 38,000  Level FlightAware
04:09PM 45.0040 -116.3570 304° West 482 555 38,000  Level FlightAware
04:10PM 45.0420 -116.4410 303° West 483 556 38,000  Level FlightAware
04:10PM 45.0890 -116.5430 303° West 480 552 38,000  Level FlightAware
04:11PM 45.1170 -116.6040 303° West 479 551 38,000  Level FlightAware
04:12PM 45.1660 -116.7110 303° West 479 551 38,000  Level FlightAware
04:12PM 45.2120 -116.8120 303° West 480 552 38,000  Level FlightAware
04:13PM 45.2520 -116.9010 303° West 480 552 38,000  Level FlightAware
04:13PM 45.2940 -116.9940 303° West 480 552 38,000  Level FlightAware
04:14PM 45.3380 -117.0930 302° West 484 557 38,000  Level FlightAware
04:15PM 45.3780 -117.1820 303° West 486 559 38,000  Level FlightAware
04:15PM 45.4260 -117.2900 302° West 486 559 38,000  Level FlightAware
04:16PM 45.4800 -117.4100 303° West 487 560 38,000  Level FlightAware
04:17PM 45.5240 -117.5080 303° West 488 562 38,000  Level FlightAware
04:18PM 45.5900 -117.6590 302° West 487 560 38,000  Level FlightAware
04:18PM 45.6360 -117.7630 302° West 483 556 38,000  Level FlightAware
04:19PM 45.6740 -117.8500 302° West 484 557 38,000  Level FlightAware
04:19PM 45.7190 -117.9530 302° West 481 554 38,000  Level FlightAware
04:20PM 45.7600 -118.0470 302° West 476 548 38,000  Level FlightAware
04:20PM 45.8030 -118.1470 302° West 475 547 38,000  Level FlightAware
04:21PM 45.8420 -118.2360 302° West 479 551 38,000  Level FlightAware
04:22PM 45.8800 -118.3240 302° West 481 554 38,000  Level FlightAware
04:22PM 45.9240 -118.4270 302° West 483 556 38,000  Level FlightAware
04:23PM 45.9670 -118.5270 302° West 487 560 38,000  Level FlightAware
04:23PM 46.0020 -118.6090 302° West 487 560 38,000  Level FlightAware
04:24PM 46.0450 -118.7100 302° West 486 559 38,000  Level FlightAware
04:25PM 46.0910 -118.8190 301° West 486 559 38,000  Level FlightAware
04:25PM 46.1380 -118.9300 301° West 485 558 38,000  Level FlightAware
04:26PM 46.1730 -119.0150 301° West 485 558 38,000  Level FlightAware
04:27PM 46.2310 -119.1520 302° West 485 558 38,000  Level FlightAware
04:27PM 46.2810 -119.2740 301° West 486 559 38,000  Level FlightAware
04:28PM 46.3167 -119.3590 301° West 487 560 38,000  Level FlightAware ADS-B
04:28PM 46.3522 -119.4450 301° West 486 559 38,000  Level FlightAware ADS-B
04:29PM 46.3867 -119.5280 301° West 486 559 38,000  Level FlightAware ADS-B
04:29PM 46.4209 -119.6110 301° West 487 560 38,000  Level FlightAware ADS-B
04:30PM 46.4560 -119.6970 301° West 488 562 38,000  Level FlightAware ADS-B
04:30PM 46.4919 -119.7850 301° West 487 560 38,000  Level FlightAware ADS-B
04:31PM 46.5409 -119.9050 301° West 486 559 38,000  Level FlightAware ADS-B
04:32PM 46.5764 -119.9930 300° West 488 562 38,000  Level FlightAware ADS-B
04:32PM 46.6113 -120.0790 301° West 486 559 38,000  Level FlightAware ADS-B
04:33PM 46.6463 -120.1660 300° West 484 557 38,000  Level FlightAware ADS-B
04:33PM 46.6810 -120.2520 300° West 483 556 38,000  Level FlightAware ADS-B
04:34PM 46.7148 -120.3370 300° West 482 555 38,000  Level FlightAware ADS-B
04:34PM 46.7497 -120.4240 300° West 483 556 38,000  Level FlightAware ADS-B
04:35PM 46.7837 -120.5100 300° West 484 557 38,000  Level FlightAware ADS-B
04:35PM 46.8179 -120.5960 300° West 488 562 38,000  Level FlightAware ADS-B
04:36PM 46.8520 -120.6820 300° West 489 563 38,000  Level FlightAware ADS-B
04:36PM 46.8863 -120.7690 300° West 488 562 38,000  Level FlightAware ADS-B
04:37PM 46.9201 -120.8550 300° West 484 557 38,000  Level FlightAware ADS-B
04:37PM 46.9539 -120.9410 300° West 481 554 38,000  Level FlightAware ADS-B
04:38PM 46.9867 -121.0250 300° West 477 549 38,000  Level FlightAware ADS-B
04:38PM 47.0194 -121.1090 300° West 478 550 38,000  Level FlightAware ADS-B
04:39PM 47.0526 -121.1950 300° West 484 557 38,000  Level FlightAware ADS-B
04:39PM 47.0860 -121.2810 300° West 485 558 38,000  Level FlightAware ADS-B
04:40PM 47.1197 -121.3690 299° West 484 557 38,000  Level FlightAware ADS-B
04:40PM 47.1530 -121.4560 299° West 483 556 38,000  Level FlightAware ADS-B
04:41PM 47.1861 -121.5420 300° West 484 557 38,000  Level FlightAware ADS-B
04:41PM 47.2191 -121.6280 299° West 487 560 38,000  Level FlightAware ADS-B
04:42PM 47.2524 -121.7160 299° West 487 560 38,000  Level FlightAware ADS-B
04:42PM 47.2851 -121.8030 299° West 485 558 38,000  Level FlightAware ADS-B
04:43PM 47.3173 -121.8900 299° West 487 560 38,000  Level FlightAware ADS-B
04:43PM 47.3505 -121.9780 299° West 488 562 38,000  Level FlightAware ADS-B
04:44PM 47.3857 -122.0730 299° West 489 563 38,000  Level FlightAware ADS-B
04:44PM 47.4188 -122.1620 299° West 489 563 38,000  Level FlightAware ADS-B
04:45PM 47.4521 -122.2520 299° West 489 563 38,000  Level FlightAware ADS-B
04:45PM 47.4844 -122.3400 299° West 488 562 38,000  Level FlightAware ADS-B
04:46PM 47.5167 -122.4270 299° West 488 562 38,000  Level FlightAware ADS-B
04:46PM 47.5490 -122.5160 298° West 487 560 38,000  Level FlightAware ADS-B
04:47PM 47.5812 -122.6040 299° West 486 559 38,000  Level FlightAware ADS-B
04:47PM 47.6131 -122.6920 298° West 486 559 38,000  Level FlightAware ADS-B
04:48PM 47.6453 -122.7810 298° West 487 560 38,000  Level FlightAware ADS-B
04:48PM 47.6812 -122.8800 298° West 486 559 38,000  Level FlightAware ADS-B
04:49PM 47.7133 -122.9690 298° West 485 558 38,000  Level FlightAware ADS-B
04:49PM 47.7477 -123.0650 298° West 484 557 38,000  Level FlightAware ADS-B
04:50PM 47.7795 -123.1540 298° West 483 556 38,000  Level FlightAware ADS-B
04:50PM 47.8110 -123.2430 298° West 485 558 38,000  Level FlightAware ADS-B
04:51PM 47.8426 -123.3320 298° West 486 559 38,000  Level FlightAware ADS-B
04:51PM 47.8743 -123.4210 298° West 487 560 38,000  Level FlightAware ADS-B
04:52PM 47.9059 -123.5110 298° West 488 562 38,000  Level FlightAware ADS-B
04:52PM 47.9374 -123.6000 298° West 488 562 38,000  Level FlightAware ADS-B
04:53PM 47.9694 -123.6920 297° West 486 559 38,000  Level FlightAware ADS-B
04:53PM 48.0008 -123.7820 298° West 487 560 38,000  Level FlightAware ADS-B
04:54PM 48.0323 -123.8720 298° West 486 559 38,000  Level FlightAware ADS-B
04:55PM 48.0632 -123.9620 297° West 486 559 38,000  Level FlightAware ADS-B
04:55PM 48.0945 -124.0520 298° West 487 560 38,000  Level FlightAware ADS-B
04:56PM 48.1254 -124.1420 297° West 489 563 38,000  Level FlightAware ADS-B
04:56PM 48.1565 -124.2320 297° West 487 560 38,000  Level FlightAware ADS-B
04:57PM 48.1872 -124.3230 297° West 487 560 38,000  Level FlightAware ADS-B
04:57PM 48.2181 -124.4130 297° West 488 562 38,000  Level FlightAware ADS-B
04:58PM 48.2493 -124.5050 297° West 488 562 38,000  Level FlightAware ADS-B
04:58PM 48.2884 -124.6210 297° West 489 563 38,000  Level FlightAware ADS-B
04:59PM 48.3198 -124.7150 297° West 488 562 38,000  Level FlightAware ADS-B
04:59PM 48.3504 -124.8060 297° West 489 563 38,000  Level FlightAware ADS-B
05:00PM 48.3938 -124.9360 297° West 490 564 38,000  Level FlightAware ADS-B
05:00PM 48.4249 -125.0290 297° West 491 565 38,000  Level FlightAware ADS-B
05:01PM 48.4646 -125.1520 296° West 491 565 38,000  Level FlightAware ADS-B
05:01PM 48.4783 -125.2120 289° West 481 554 38,000  Level FlightAware ADS-B
05:02PM 48.4874 -125.2710 283° West 475 547 38,000  Level FlightAware ADS-B
05:02PM 48.5001 -125.3940 279° West 475 547 38,000  Level FlightAware ADS-B
05:03PM 48.5110 -125.5060 278° West 474 545 38,000  Level FlightAware
05:03PM 48.5148 -125.5390 280° West 475 547 38,000  Level FlightAware ADS-B
05:04PM 48.5332 -125.7210 279° West 474 545 38,000  Level FlightAware ADS-B
05:05PM 48.5460 -125.8470 279° West 475 547 38,000  Level FlightAware
05:05PM 48.5570 -125.9670 278° West 477 549 38,000  Level FlightAware
05:06PM 48.5680 -126.0820 278° West 478 550 38,000  Level FlightAware
05:07PM 48.5830 -126.2360 278° West 478 550 38,000  Level FlightAware
05:07PM 48.5920 -126.3340 278° West 477 549 38,000  Level FlightAware
05:08PM 48.6050 -126.4630 279° West 477 549 38,000  Level FlightAware
05:09PM 48.6180 -126.6110 278° West 477 549 38,000  Level FlightAware
05:09PM 48.6280 -126.7230 278° West 478 550 38,000  Level FlightAware
05:10PM 48.6400 -126.8580 278° West 480 552 38,000  Level FlightAware
05:10PM 48.6490 -126.9540 278° West 480 552 38,000  Level FlightAware
05:11PM 48.6590 -127.0720 277° West 479 551 38,000  Level FlightAware
05:12PM 48.6680 -127.1850 277° West 479 551 38,000  Level FlightAware
05:12PM 48.6790 -127.3050 278° West 477 549 38,000  Level FlightAware
05:13PM 48.6890 -127.4180 278° West 477 549 38,000  Level FlightAware
05:13PM 48.7000 -127.5500 277° West 477 549 38,000  Level FlightAware
05:14PM 48.7100 -127.6710 277° West 481 554 38,000  Level FlightAware
05:15PM 48.7250 -127.8440 278° West 483 556 38,000  Level FlightAware
05:15PM 48.7340 -127.9470 278° West 483 556 38,000  Level FlightAware
05:16PM 48.7440 -128.0550 278° West 483 556 38,000  Level FlightAware
05:17PM 48.7540 -128.1640 278° West 483 556 38,000  Level FlightAware
05:17PM 48.7640 -128.2660 278° West 483 556 38,000  Level FlightAware
05:18PM 48.7730 -128.3660 278° West 483 556 38,000  Level FlightAware
05:18PM 48.7830 -128.4690 278° West 483 556 38,000  Level FlightAware
05:19PM 48.7920 -128.5720 278° West 483 556 38,000  Level FlightAware
05:20PM 48.8020 -128.6800 278° West 483 556 38,000  Level FlightAware
05:20PM 48.8120 -128.7830 278° West 483 556 38,000  Level FlightAware
05:21PM 48.8210 -128.8860 278° West 483 556 38,000  Level FlightAware
05:22PM 48.8310 -128.9920 278° West 483 556 38,000  Level FlightAware
05:22PM 48.8400 -129.0940 278° West 483 556 38,000  Level FlightAware
05:23PM 48.8500 -129.2000 278° West 483 556 38,000  Level FlightAware
05:23PM 48.8600 -129.3030 278° West 483 556 38,000  Level FlightAware
05:24PM 48.8690 -129.4000 278° West 483 556 38,000  Level FlightAware
05:25PM 48.8500 -129.8833 278° West 490 564 38,000  Level Vancouver Center
05:26PM 48.8667 -130.1000 277° West 500 575 38,000  Level Vancouver Center
05:27PM 48.8667 -130.3333 270° West 500 575 38,000  Level Vancouver Center
05:28PM 48.8833 -130.5333 277° West 490 564 38,000  Level Vancouver Center
05:30PM 48.9167 -130.9500 277° West 500 575 38,000  Level Vancouver Center
05:31PM 48.9000 -131.1500 263° West 490 564 38,000  Level Vancouver Center
05:32PM 48.9167 -131.3500 277° West 500 575 38,000  Level Vancouver Center
05:33PM 48.9333 -131.5833 276° West 510 587 38,000  Level Vancouver Center
05:34PM 48.9500 -131.7833 277° West 500 575 38,000  Level Vancouver Center
05:35PM 48.9667 -132.0000 277° West 500 575 38,000  Level Vancouver Center
05:37PM 48.9802 -132.3476 274° West  Level FlightAware Approximate
05:37PM 49.0000 -132.4500 277° West 471 542 38,000  Level Oakland Oceanic (ODAPS)
05:38PM 49.0000 -132.5500 277° West 471 542 38,000  Level Oakland Oceanic (ODAPS)
05:44PM 49.0836 -133.7313 276° West 471 542 38,000  Level FlightAware Transoceanic
05:45PM 49.0963 -133.9285 276° West 471 542 38,000  Level FlightAware Transoceanic
05:46PM 49.1088 -134.1259 275° West 471 542 38,000  Level FlightAware Transoceanic
05:47PM 49.1208 -134.3234 275° West 471 542 38,000  Level FlightAware Transoceanic
05:48PM 49.1326 -134.5209 275° West 471 542 38,000  Level FlightAware Transoceanic
05:49PM 49.1440 -134.7186 275° West 471 542 38,000  Level FlightAware Transoceanic
05:50PM 49.1551 -134.9163 275° West 471 542 38,000  Level FlightAware Transoceanic
05:51PM 49.1658 -135.1141 275° West 471 542 38,000  Level FlightAware Transoceanic
05:51PM 49.1833 -135.4833 274° West 475 547 38,000  Level Oakland Oceanic (ODAPS)
05:52PM 49.1762 -135.3120 275° West 471 542 38,000  Level FlightAware Transoceanic
05:53PM 49.1863 -135.5100 274° West 471 542 38,000  Level FlightAware Transoceanic
05:54PM 49.1960 -135.7081 274° West 471 542 38,000  Level FlightAware Transoceanic
05:55PM 49.2054 -135.9062 274° West 471 542 38,000  Level FlightAware Transoceanic
05:56PM 49.2144 -136.1044 274° West 471 542 38,000  Level FlightAware Transoceanic
05:57PM 49.2231 -136.3027 274° West 471 542 38,000  Level FlightAware Transoceanic
05:58PM 49.2377 -136.6915 273° West 475 547 38,000  Level FlightAware Transoceanic
05:59PM 49.2456 -136.8931 273° West 475 547 38,000  Level FlightAware Transoceanic
06:00PM 49.2531 -137.0947 273° West 475 547 38,000  Level FlightAware Transoceanic
06:01PM 49.2602 -137.2965 273° West 475 547 38,000  Level FlightAware Transoceanic
06:02PM 49.2670 -137.4982 273° West 475 547 38,000  Level FlightAware Transoceanic
06:03PM 49.2734 -137.7001 273° West 475 547 38,000  Level FlightAware Transoceanic
06:04PM 49.2795 -137.9020 273° West 475 547 38,000  Level FlightAware Transoceanic
06:05PM 49.2852 -138.1039 272° West 475 547 38,000  Level FlightAware Transoceanic
06:05PM 49.3000 -138.4333 272° West 480 552 38,000  Level Oakland Oceanic (ODAPS)
06:06PM 49.2906 -138.3059 272° West 475 547 38,000  Level FlightAware Transoceanic
06:07PM 49.2956 -138.5079 272° West 475 547 38,000  Level FlightAware Transoceanic
06:08PM 49.3003 -138.7100 272° West 475 547 38,000  Level FlightAware Transoceanic
06:09PM 49.3046 -138.9121 272° West 475 547 38,000  Level FlightAware Transoceanic
06:10PM 49.3086 -139.1142 272° West 475 547 38,000  Level FlightAware Transoceanic
06:11PM 49.3122 -139.3164 271° West 475 547 38,000  Level FlightAware Transoceanic
06:12PM 49.3230 -139.6541 271° West 480 552 38,000  Level FlightAware Transoceanic
06:13PM 49.3256 -139.8577 271° West 480 552 38,000  Level FlightAware Transoceanic
06:14PM 49.3278 -140.0613 271° West 480 552 38,000  Level FlightAware Transoceanic
06:15PM 49.3297 -140.2649 271° West 480 552 38,000  Level FlightAware Transoceanic
06:16PM 49.3312 -140.4685 271° West 480 552 38,000  Level FlightAware Transoceanic
06:17PM 49.3323 -140.6721 270° West 480 552 38,000  Level FlightAware Transoceanic
06:18PM 49.3331 -140.8757 270° West 480 552 38,000  Level FlightAware Transoceanic
06:19PM 49.3336 -141.0794 270° West 480 552 38,000  Level FlightAware Transoceanic
06:19PM 49.3333 -141.3167 270° West 470 541 38,000  Level Oakland Oceanic (ODAPS)
06:20PM 49.3336 -141.2830 270° West 480 552 38,000  Level FlightAware Transoceanic
06:21PM 49.3334 -141.4867 270° West 480 552 38,000  Level FlightAware Transoceanic
06:22PM 49.3327 -141.6903 270° West 480 552 38,000  Level FlightAware Transoceanic
06:23PM 49.3317 -141.8939 269° West 480 552 38,000  Level FlightAware Transoceanic
06:24PM 49.3304 -142.0976 269° West 480 552 38,000  Level FlightAware Transoceanic
06:25PM 49.3281 -142.3309 269° West 470 541 38,000  Level FlightAware Transoceanic
06:26PM 49.3260 -142.5337 269° West 470 541 38,000  Level FlightAware Transoceanic
06:27PM 49.3236 -142.7365 269° West 470 541 38,000  Level FlightAware Transoceanic
06:28PM 49.3208 -142.9392 269° West 470 541 38,000  Level FlightAware Transoceanic
06:29PM 49.3176 -143.1420 269° West 470 541 38,000  Level FlightAware Transoceanic
06:30PM 49.3141 -143.3447 268° West 470 541 38,000  Level FlightAware Transoceanic
06:31PM 49.3102 -143.5474 268° West 470 541 38,000  Level FlightAware Transoceanic
06:32PM 49.3060 -143.7500 268° West 470 541 38,000  Level FlightAware Transoceanic
06:33PM 49.3014 -143.9526 268° West 470 541 38,000  Level FlightAware Transoceanic
06:33PM 49.3000 -144.0667 268° West 447 514 38,000  Level Oakland Oceanic (ODAPS)
06:34PM 49.2964 -144.1552 268° West 470 541 38,000  Level FlightAware Transoceanic
06:35PM 49.2911 -144.3577 268° West 470 541 38,000  Level FlightAware Transoceanic
06:36PM 49.2855 -144.5602 267° West 470 541 38,000  Level FlightAware Transoceanic
06:37PM 49.2795 -144.7627 267° West 470 541 38,000  Level FlightAware Transoceanic
06:38PM 49.2731 -144.9651 267° West 470 541 38,000  Level FlightAware Transoceanic
06:39PM 49.2670 -145.1841 267° West 447 514 38,000  Level FlightAware Transoceanic
06:40PM 49.2604 -145.3701 267° West 447 514 38,000  Level FlightAware Transoceanic
06:41PM 49.2536 -145.5562 267° West 447 514 38,000  Level FlightAware Transoceanic
06:42PM 49.2464 -145.7422 267° West 447 514 38,000  Level FlightAware Transoceanic
06:43PM 49.2390 -145.9281 266° West 447 514 38,000  Level FlightAware Transoceanic
06:44PM 49.2312 -146.1139 266° West 447 514 38,000  Level FlightAware Transoceanic
06:45PM 49.2232 -146.2997 266° West 447 514 38,000  Level FlightAware Transoceanic
06:46PM 49.2148 -146.4855 266° West 447 514 38,000  Level FlightAware Transoceanic
06:47PM 49.2062 -146.6712 266° West 447 514 38,000  Level FlightAware Transoceanic
06:47PM 49.2000 -146.7000 266° West 451 519 38,000  Level Oakland Oceanic (ODAPS)
06:48PM 49.1973 -146.8568 266° West 447 514 38,000  Level FlightAware Transoceanic
06:49PM 49.1880 -147.0423 266° West 447 514 38,000  Level FlightAware Transoceanic
06:50PM 49.1785 -147.2278 265° West 447 514 38,000  Level FlightAware Transoceanic
06:51PM 49.1687 -147.4132 265° West 447 514 38,000  Level FlightAware Transoceanic
06:52PM 49.1585 -147.5985 265° West 447 514 38,000  Level FlightAware Transoceanic
06:53PM 49.1438 -147.8029 265° West 451 519 38,000  Level FlightAware Transoceanic
06:54PM 49.1334 -147.9864 265° West 451 519 38,000  Level FlightAware Transoceanic
06:55PM 49.1227 -148.1699 265° West 451 519 38,000  Level FlightAware Transoceanic
06:56PM 49.1118 -148.3533 265° West 451 519 38,000  Level FlightAware Transoceanic
06:57PM 49.1005 -148.5367 265° West 451 519 38,000  Level FlightAware Transoceanic
06:58PM 49.0890 -148.7199 264° West 451 519 38,000  Level FlightAware Transoceanic
06:59PM 49.0771 -148.9030 264° West 451 519 38,000  Level FlightAware Transoceanic
07:00PM 49.0650 -149.0861 264° West 451 519 38,000  Level FlightAware Transoceanic
07:01PM 49.0526 -149.2691 264° West 451 519 38,000  Level FlightAware Transoceanic
07:01PM 49.0500 -149.3500 264° West 450 518 38,000  Level Oakland Oceanic (ODAPS)
07:02PM 49.0398 -149.4519 264° West 451 519 38,000  Level FlightAware Transoceanic
07:03PM 49.0269 -149.6347 264° West 451 519 38,000  Level FlightAware Transoceanic
07:04PM 49.0136 -149.8174 264° West 451 519 38,000  Level FlightAware Transoceanic
07:04PM 49.0000 -150.0000 257° West 450 518 38,000  Level Oakland Oceanic (ODAPS)
07:05PM 49.0000 -150.0000 257° West 451 519 38,000  Level FlightAware Transoceanic
07:06PM 48.9721 -150.1850 257° West 451 519 38,000  Level FlightAware Transoceanic
07:07PM 48.9439 -150.3699 257° West 450 518 38,000  Level FlightAware Transoceanic
07:08PM 48.9153 -150.5545 257° West 450 518 38,000  Level FlightAware Transoceanic
07:09PM 48.8865 -150.7389 257° West 450 518 38,000  Level FlightAware Transoceanic
07:10PM 48.8574 -150.9231 256° West 450 518 38,000  Level FlightAware Transoceanic
07:11PM 48.8248 -151.1272 256° West 450 518 38,000  Level FlightAware Transoceanic
07:12PM 48.7946 -151.3143 256° West 450 518 38,000  Level FlightAware Transoceanic
07:13PM 48.7640 -151.5011 256° West 450 518 38,000  Level FlightAware Transoceanic
07:14PM 48.7331 -151.6877 256° West 450 518 38,000  Level FlightAware Transoceanic
07:15PM 48.7020 -151.8741 256° West 450 518 38,000 840 Level FlightAware Transoceanic
07:15PM 48.7000 -151.8667 256° West 440 506 39,000  Climbing Oakland Oceanic (ODAPS)
07:16PM 48.6705 -152.0603 256° West 450 518 38,000 -600 Descending FlightAware Transoceanic
07:17PM 48.6387 -152.2462 255° West 450 518 38,000  Level FlightAware Transoceanic
07:18PM 48.6067 -152.4319 255° West 450 518 38,000  Level FlightAware Transoceanic
07:19PM 48.5743 -152.6174 255° West 450 518 38,000  Level FlightAware Transoceanic
07:20PM 48.5416 -152.8026 255° West 450 518 38,000 480 Level FlightAware Transoceanic
07:21PM 48.5155 -152.9339 255° West 440 506 39,000 480 Climbing FlightAware Transoceanic
07:22PM 48.4838 -153.1110 255° West 440 506 39,000  Level FlightAware Transoceanic
07:23PM 48.4518 -153.2879 255° West 440 506 39,000  Level FlightAware Transoceanic
07:24PM 48.4195 -153.4645 255° West 440 506 39,000  Level FlightAware Transoceanic
07:25PM 48.3870 -153.6409 254° West 440 506 39,000  Level FlightAware Transoceanic
07:26PM 48.3542 -153.8172 254° West 440 506 39,000  Level FlightAware Transoceanic
07:27PM 48.3211 -153.9931 254° West 440 506 39,000  Level FlightAware Transoceanic
07:28PM 48.2878 -154.1689 254° West 440 506 39,000  Level FlightAware Transoceanic
07:29PM 48.2542 -154.3444 254° West 440 506 39,000  Level FlightAware Transoceanic
07:29PM 48.2667 -154.2667 254° West 434 499 39,000  Level Oakland Oceanic (ODAPS)
07:30PM 48.2203 -154.5197 254° West 440 506 39,000  Level FlightAware Transoceanic
07:31PM 48.1862 -154.6947 254° West 440 506 39,000  Level FlightAware Transoceanic
07:32PM 48.1518 -154.8696 253° West 440 506 39,000  Level FlightAware Transoceanic
07:33PM 48.1172 -155.0441 253° West 440 506 39,000  Level FlightAware Transoceanic
07:34PM 48.0822 -155.2185 253° West 440 506 39,000  Level FlightAware Transoceanic
07:35PM 48.0641 -155.2983 253° West 434 499 39,000  Level FlightAware Transoceanic
07:36PM 48.0294 -155.4695 253° West 434 499 39,000  Level FlightAware Transoceanic
07:37PM 47.9945 -155.6404 253° West 434 499 39,000  Level FlightAware Transoceanic
07:38PM 47.9594 -155.8111 253° West 434 499 39,000  Level FlightAware Transoceanic
07:39PM 47.9240 -155.9816 253° West 434 499 39,000  Level FlightAware Transoceanic
07:40PM 47.8883 -156.1518 253° West 434 499 39,000  Level FlightAware Transoceanic
07:41PM 47.8524 -156.3217 252° West 434 499 39,000  Level FlightAware Transoceanic
07:42PM 47.8162 -156.4915 252° West 434 499 39,000  Level FlightAware Transoceanic
07:42PM 47.8000 -156.6167 252° West 431 496 39,000  Level Oakland Oceanic (ODAPS)
07:43PM 47.7798 -156.6610 252° West 434 499 39,000  Level FlightAware Transoceanic
07:44PM 47.7431 -156.8303 252° West 434 499 39,000  Level FlightAware Transoceanic
07:45PM 47.7062 -156.9993 252° West 434 499 39,000  Level FlightAware Transoceanic
07:46PM 47.6690 -157.1681 252° West 434 499 39,000  Level FlightAware Transoceanic
07:47PM 47.6316 -157.3367 252° West 434 499 39,000  Level FlightAware Transoceanic
07:48PM 47.5940 -157.5050 252° West 434 499 39,000  Level FlightAware Transoceanic
07:49PM 47.5705 -157.6424 251° West 431 496 39,000  Level FlightAware Transoceanic
07:50PM 47.5314 -157.8125 251° West 431 496 39,000  Level FlightAware Transoceanic
07:51PM 47.4920 -157.9823 251° West 431 496 39,000  Level FlightAware Transoceanic
07:52PM 47.4523 -158.1519 251° West 431 496 39,000  Level FlightAware Transoceanic
07:53PM 47.4124 -158.3212 251° West 431 496 39,000  Level FlightAware Transoceanic
07:54PM 47.3723 -158.4902 251° West 431 496 39,000  Level FlightAware Transoceanic
07:55PM 47.3319 -158.6590 250° West 431 496 39,000  Level FlightAware Transoceanic
07:56PM 47.2913 -158.8276 250° West 431 496 39,000  Level FlightAware Transoceanic
07:56PM 47.2500 -159.0000 250° West 455 524 39,000  Level Oakland Oceanic (ODAPS)
07:57PM 47.2504 -158.9958 250° West 431 496 39,000  Level FlightAware Transoceanic
07:58PM 47.2093 -159.1638 250° West 431 496 39,000  Level FlightAware Transoceanic
07:59PM 47.1679 -159.3316 250° West 431 496 39,000  Level FlightAware Transoceanic
08:00PM 47.1263 -159.4991 250° West 431 496 39,000  Level FlightAware Transoceanic
08:01PM 47.0844 -159.6663 250° West 431 496 39,000  Level FlightAware Transoceanic
08:02PM 47.0423 -159.8333 250° West 431 496 39,000  Level FlightAware Transoceanic
08:03PM 46.9552 -160.1845 250° West 455 524 39,000  Level FlightAware Transoceanic
08:04PM 46.9100 -160.3687 250° West 455 524 39,000  Level FlightAware Transoceanic
08:05PM 46.8646 -160.5526 250° West 455 524 39,000  Level FlightAware Transoceanic
08:06PM 46.8188 -160.7361 250° West 455 524 39,000  Level FlightAware Transoceanic
08:07PM 46.7728 -160.9194 250° West 455 524 39,000  Level FlightAware Transoceanic
08:08PM 46.7265 -161.1023 250° West 455 524 39,000  Level FlightAware Transoceanic
08:09PM 46.6799 -161.2849 250° West 455 524 39,000  Level FlightAware Transoceanic
08:10PM 46.6329 -161.4672 249° West 455 524 39,000  Level FlightAware Transoceanic
08:11PM 46.5858 -161.6492 249° West 455 524 39,000  Level FlightAware Transoceanic
08:11PM 46.6333 -161.5000 249° West 504 580 39,000  Level Oakland Oceanic (ODAPS)
08:12PM 46.5383 -161.8309 249° West 455 524 39,000  Level FlightAware Transoceanic
08:13PM 46.4905 -162.0122 249° West 455 524 39,000  Level FlightAware Transoceanic
08:14PM 46.4425 -162.1933 249° West 455 524 39,000  Level FlightAware Transoceanic
08:15PM 46.3941 -162.3740 249° West 455 524 39,000  Level FlightAware Transoceanic
08:16PM 46.3455 -162.5544 249° West 455 524 39,000  Level FlightAware Transoceanic
08:17PM 46.2820 -162.8157 248° West 504 580 39,000  Level FlightAware Transoceanic
08:18PM 46.2305 -163.0023 248° West 504 580 39,000  Level FlightAware Transoceanic
08:19PM 46.1788 -163.1885 248° West 504 580 39,000  Level FlightAware Transoceanic
08:20PM 46.1268 -163.3744 248° West 504 580 39,000  Level FlightAware Transoceanic
08:21PM 46.0745 -163.5599 248° West 504 580 39,000  Level FlightAware Transoceanic
08:22PM 46.0219 -163.7451 248° West 504 580 39,000  Level FlightAware Transoceanic
08:23PM 45.9689 -163.9299 248° West 504 580 39,000  Level FlightAware Transoceanic
08:24PM 45.9157 -164.1143 247° West 504 580 39,000  Level FlightAware Transoceanic
08:25PM 45.8622 -164.2985 247° West 504 580 39,000  Level FlightAware Transoceanic
08:25PM 45.9333 -164.0500 247° West 508 585 39,000  Level Oakland Oceanic (ODAPS)
08:26PM 45.8084 -164.4822 247° West 504 580 39,000  Level FlightAware Transoceanic
08:27PM 45.7543 -164.6656 247° West 504 580 39,000  Level FlightAware Transoceanic
08:28PM 45.6999 -164.8486 247° West 504 580 39,000  Level FlightAware Transoceanic
08:29PM 45.6452 -165.0313 247° West 504 580 39,000  Level FlightAware Transoceanic
08:30PM 45.5902 -165.2136 247° West 504 580 39,000  Level FlightAware Transoceanic
08:31PM 45.5494 -165.3456 247° West 508 585 39,000  Level FlightAware Transoceanic
08:32PM 45.4934 -165.5292 246° West 508 585 39,000  Level FlightAware Transoceanic
08:33PM 45.4370 -165.7125 246° West 508 585 39,000  Level FlightAware Transoceanic
08:34PM 45.3804 -165.8954 246° West 508 585 39,000  Level FlightAware Transoceanic
08:35PM 45.3235 -166.0779 246° West 508 585 39,000  Level FlightAware Transoceanic
08:36PM 45.2663 -166.2600 246° West 508 585 39,000  Level FlightAware Transoceanic
08:37PM 45.2088 -166.4418 246° West 508 585 39,000  Level FlightAware Transoceanic
08:38PM 45.1510 -166.6232 246° West 508 585 39,000  Level FlightAware Transoceanic
08:38PM 45.1500 -166.6000 246° West 515 593 39,000  Level Oakland Oceanic (ODAPS)
08:39PM 45.0929 -166.8043 245° Southwest 508 585 39,000  Level FlightAware Transoceanic
08:40PM 45.0346 -166.9850 245° Southwest 508 585 39,000  Level FlightAware Transoceanic
08:41PM 44.9759 -167.1653 245° Southwest 508 585 39,000  Level FlightAware Transoceanic
08:42PM 44.9170 -167.3452 245° Southwest 508 585 39,000  Level FlightAware Transoceanic
08:43PM 44.8578 -167.5248 245° Southwest 508 585 39,000  Level FlightAware Transoceanic
08:44PM 44.7978 -167.6882 245° Southwest 515 593 39,000  Level FlightAware Transoceanic
08:45PM 44.7381 -167.8683 245° Southwest 515 593 39,000  Level FlightAware Transoceanic
08:46PM 44.6781 -168.0480 245° Southwest 515 593 39,000  Level FlightAware Transoceanic
08:47PM 44.6179 -168.2273 245° Southwest 515 593 39,000  Level FlightAware Transoceanic
08:48PM 44.5573 -168.4062 245° Southwest 515 593 39,000  Level FlightAware Transoceanic
08:49PM 44.4965 -168.5848 244° Southwest 515 593 39,000  Level FlightAware Transoceanic
08:50PM 44.4354 -168.7630 244° Southwest 515 593 39,000  Level FlightAware Transoceanic
08:51PM 44.3740 -168.9409 244° Southwest 515 593 39,000  Level FlightAware Transoceanic
08:52PM 44.3124 -169.1183 244° Southwest 515 593 39,000  Level FlightAware Transoceanic
08:53PM 44.2504 -169.2954 244° Southwest 515 593 39,000  Level FlightAware Transoceanic
08:53PM 44.3000 -169.1333 245° Southwest 524 603 39,000  Level Oakland Oceanic (ODAPS)
08:54PM 44.1882 -169.4721 244° Southwest 515 593 39,000  Level FlightAware Transoceanic
08:55PM 44.1258 -169.6484 244° Southwest 515 593 39,000  Level FlightAware Transoceanic
08:56PM 44.0630 -169.8244 244° Southwest 515 593 39,000  Level FlightAware Transoceanic
08:57PM 44.0000 -170.0000 258° West 515 593 39,000  Level FlightAware Transoceanic
08:58PM 43.9699 -170.1981 258° West 515 593 39,000  Level FlightAware Transoceanic
08:58PM 43.9667 -170.2000 258° West 523 602 39,000  Level Oakland Oceanic (ODAPS)
08:59PM 43.9395 -170.3961 258° West 524 603 39,000  Level FlightAware Transoceanic
09:00PM 43.9088 -170.5938 258° West 524 603 39,000  Level FlightAware Transoceanic
09:01PM 43.8777 -170.7914 258° West 524 603 39,000  Level FlightAware Transoceanic
09:02PM 43.8462 -170.9887 257° West 524 603 39,000  Level FlightAware Transoceanic
09:03PM 43.8145 -171.1858 257° West 524 603 39,000  Level FlightAware Transoceanic
09:04PM 43.7794 -171.3843 257° West 523 602 39,000  Level FlightAware Transoceanic
09:05PM 43.7471 -171.5809 257° West 523 602 39,000  Level FlightAware Transoceanic
09:06PM 43.7143 -171.7773 257° West 523 602 39,000  Level FlightAware Transoceanic
09:06PM 43.7167 -171.7833 257° West 523 602 39,000  Level Oakland Oceanic (ODAPS)
09:07PM 43.6813 -171.9736 257° West 523 602 39,000  Level FlightAware Transoceanic
09:08PM 43.6479 -172.1696 257° West 523 602 39,000  Level FlightAware Transoceanic
09:09PM 43.6142 -172.3654 257° West 523 602 39,000  Level FlightAware Transoceanic
09:10PM 43.5801 -172.5609 256° West 523 602 39,000  Level FlightAware Transoceanic
09:11PM 43.5457 -172.7562 256° West 523 602 39,000  Level FlightAware Transoceanic
09:12PM 43.5129 -172.9565 256° West 523 602 39,000  Level FlightAware Transoceanic
09:13PM 43.4778 -173.1513 256° West 523 602 39,000  Level FlightAware Transoceanic
09:14PM 43.4423 -173.3458 256° West 523 602 39,000  Level FlightAware Transoceanic
09:15PM 43.4066 -173.5401 256° West 523 602 39,000  Level FlightAware Transoceanic
09:16PM 43.3704 -173.7342 256° West 523 602 39,000  Level FlightAware Transoceanic
09:17PM 43.3340 -173.9280 255° West 523 602 39,000  Level FlightAware Transoceanic
09:18PM 43.2972 -174.1216 255° West 523 602 39,000  Level FlightAware Transoceanic
09:19PM 43.2602 -174.3150 255° West 523 602 39,000  Level FlightAware Transoceanic
09:20PM 43.2227 -174.5081 255° West 523 602 39,000  Level FlightAware Transoceanic
09:20PM 43.2333 -174.4667 255° West 522 601 39,000  Level Oakland Oceanic (ODAPS)
09:21PM 43.1850 -174.7010 255° West 523 602 39,000  Level FlightAware Transoceanic
09:22PM 43.1469 -174.8936 255° West 523 602 39,000  Level FlightAware Transoceanic
09:23PM 43.1085 -175.0860 255° West 523 602 39,000  Level FlightAware Transoceanic
09:24PM 43.0698 -175.2782 255° West 523 602 39,000  Level FlightAware Transoceanic
09:25PM 43.0308 -175.4701 254° West 523 602 39,000  Level FlightAware Transoceanic
09:26PM 43.0002 -175.6293 254° West 522 601 39,000  Level FlightAware Transoceanic
09:27PM 42.9602 -175.8221 254° West 522 601 39,000  Level FlightAware Transoceanic
09:28PM 42.9199 -176.0148 254° West 522 601 39,000  Level FlightAware Transoceanic
09:29PM 42.8792 -176.2072 254° West 522 601 39,000  Level FlightAware Transoceanic
09:30PM 42.8383 -176.3993 254° West 522 601 39,000  Level FlightAware Transoceanic
09:31PM 42.7970 -176.5912 254° West 522 601 39,000  Level FlightAware Transoceanic
09:32PM 42.7554 -176.7828 253° West 522 601 39,000  Level FlightAware Transoceanic
09:33PM 42.7135 -176.9742 253° West 522 601 39,000  Level FlightAware Transoceanic
09:33PM 42.6833 -177.1000 253° West 526 605 39,000  Level Oakland Oceanic (ODAPS)
09:34PM 42.6712 -177.1653 253° West 522 601 39,000  Level FlightAware Transoceanic
09:35PM 42.6286 -177.3561 253° West 522 601 39,000  Level FlightAware Transoceanic
09:36PM 42.5858 -177.5467 253° West 522 601 39,000  Level FlightAware Transoceanic
09:37PM 42.5426 -177.7370 253° West 522 601 39,000  Level FlightAware Transoceanic
09:38PM 42.4991 -177.9271 253° West 522 601 39,000  Level FlightAware Transoceanic
09:39PM 42.4552 -178.1169 253° West 522 601 39,000  Level FlightAware Transoceanic
09:40PM 42.4188 -178.2675 253° West 526 605 39,000  Level FlightAware Transoceanic
09:41PM 42.3735 -178.4612 252° West 526 605 39,000  Level FlightAware Transoceanic
09:42PM 42.3280 -178.6545 252° West 526 605 39,000  Level FlightAware Transoceanic
09:43PM 42.2821 -178.8476 252° West 526 605 39,000  Level FlightAware Transoceanic
09:44PM 42.2359 -179.0404 252° West 526 605 39,000  Level FlightAware Transoceanic
09:45PM 42.1893 -179.2329 252° West 526 605 39,000  Level FlightAware Transoceanic
09:46PM 42.1425 -179.4251 252° West 526 605 39,000  Level FlightAware Transoceanic
09:47PM 42.0953 -179.6170 252° West 526 605 39,000 540 Level FlightAware Transoceanic
09:47PM 42.0667 -179.7167 253° West 529 609 40,000  Climbing Oakland Oceanic (ODAPS)
09:48PM 42.0478 -179.8087 251° West 526 605 39,000 -840 Descending FlightAware Transoceanic
09:49PM 42.0000 -180.0000 258° West 526 605 39,000 720 Level FlightAware Transoceanic
09:49PM 42.0000 180.0000 258° West 528 608 40,000  Climbing Oakland Oceanic (ODAPS)
09:50PM 41.9715 179.8130 258° West 526 605 39,000 -600 Descending FlightAware Transoceanic
09:51PM 41.9427 179.6262 258° West 526 605 39,000  Level FlightAware Transoceanic
09:52PM 41.9136 179.4396 258° West 526 605 39,000  Level FlightAware Transoceanic
09:53PM 41.8843 179.2531 258° West 526 605 39,000 480 Level FlightAware Transoceanic
09:54PM 41.8546 179.0669 258° West 529 609 40,000 480 Climbing FlightAware Transoceanic
09:55PM 41.8177 178.8387 258° West 528 608 40,000  Level FlightAware Transoceanic
09:56PM 41.7862 178.6457 258° West 528 608 40,000  Level FlightAware Transoceanic
09:57PM 41.7544 178.4530 257° West 528 608 40,000  Level FlightAware Transoceanic
09:58PM 41.7222 178.2605 257° West 528 608 40,000  Level FlightAware Transoceanic
09:59PM 41.6898 178.0682 257° West 528 608 40,000  Level FlightAware Transoceanic
10:00PM 41.6570 177.8760 257° West 528 608 40,000  Level FlightAware Transoceanic
10:01PM 41.6238 177.6841 257° West 528 608 40,000  Level FlightAware Transoceanic
10:01PM 41.6167 177.6333 257° West 528 608 40,000  Level Oakland Oceanic (ODAPS)
10:02PM 41.5904 177.4924 257° West 528 608 40,000  Level FlightAware Transoceanic
10:03PM 41.5566 177.3008 257° West 528 608 40,000  Level FlightAware Transoceanic
10:04PM 41.5226 177.1095 257° West 528 608 40,000  Level FlightAware Transoceanic
10:05PM 41.4882 176.9183 256° West 528 608 40,000  Level FlightAware Transoceanic
10:06PM 41.4535 176.7274 256° West 528 608 40,000  Level FlightAware Transoceanic
10:07PM 41.4119 176.4936 256° West 528 608 40,000  Level FlightAware Transoceanic
10:08PM 41.3767 176.3043 256° West 528 608 40,000  Level FlightAware Transoceanic
10:09PM 41.3412 176.1153 256° West 528 608 40,000  Level FlightAware Transoceanic
10:10PM 41.3053 175.9265 256° West 528 608 40,000  Level FlightAware Transoceanic
10:11PM 41.2692 175.7378 256° West 528 608 40,000  Level FlightAware Transoceanic
10:12PM 41.2327 175.5494 256° West 528 608 40,000  Level FlightAware Transoceanic
10:13PM 41.1960 175.3612 255° West 528 608 40,000  Level FlightAware Transoceanic
10:14PM 41.1589 175.1732 255° West 528 608 40,000  Level FlightAware Transoceanic
10:15PM 41.1216 174.9854 255° West 528 608 40,000  Level FlightAware Transoceanic
10:15PM 41.1167 175.0000 255° West 528 608 40,000  Level Oakland Oceanic (ODAPS)
10:16PM 41.0839 174.7978 255° West 528 608 40,000  Level FlightAware Transoceanic
10:17PM 41.0459 174.6105 255° West 528 608 40,000  Level FlightAware Transoceanic
10:18PM 41.0076 174.4234 255° West 528 608 40,000  Level FlightAware Transoceanic
10:19PM 40.9690 174.2364 255° West 528 608 40,000  Level FlightAware Transoceanic
10:20PM 40.9301 174.0497 255° West 528 608 40,000  Level FlightAware Transoceanic
10:21PM 40.8873 173.8746 255° West 528 608 40,000  Level FlightAware Transoceanic
10:22PM 40.8480 173.6878 254° West 528 608 40,000  Level FlightAware Transoceanic
10:23PM 40.8084 173.5013 254° West 528 608 40,000  Level FlightAware Transoceanic
10:24PM 40.7685 173.3149 254° West 528 608 40,000  Level FlightAware Transoceanic
10:25PM 40.7283 173.1288 254° West 528 608 40,000  Level FlightAware Transoceanic
10:26PM 40.6878 172.9429 254° West 528 608 40,000  Level FlightAware Transoceanic
10:27PM 40.6470 172.7572 254° West 528 608 40,000  Level FlightAware Transoceanic
10:28PM 40.6059 172.5718 254° West 528 608 40,000  Level FlightAware Transoceanic
10:29PM 40.5646 172.3866 254° West 528 608 40,000  Level FlightAware Transoceanic
10:29PM 40.5833 172.4500 253° West 522 601 40,000  Level Oakland Oceanic (ODAPS)
10:30PM 40.5229 172.2016 253° West 528 608 40,000  Level FlightAware Transoceanic
10:31PM 40.4809 172.0168 253° West 528 608 40,000  Level FlightAware Transoceanic
10:32PM 40.4386 171.8323 253° West 528 608 40,000  Level FlightAware Transoceanic
10:33PM 40.3961 171.6480 253° West 528 608 40,000  Level FlightAware Transoceanic
10:34PM 40.3532 171.4639 253° West 528 608 40,000  Level FlightAware Transoceanic
10:35PM 40.3397 171.3948 253° West 522 601 40,000  Level FlightAware Transoceanic
10:36PM 40.2981 171.2197 253° West 522 601 40,000  Level FlightAware Transoceanic
10:37PM 40.2563 171.0448 253° West 522 601 40,000  Level FlightAware Transoceanic
10:38PM 40.2143 170.8701 252° West 522 601 40,000  Level FlightAware Transoceanic
10:39PM 40.1719 170.6957 252° West 522 601 40,000  Level FlightAware Transoceanic
10:40PM 40.1293 170.5214 252° West 522 601 40,000  Level FlightAware Transoceanic
10:41PM 40.0865 170.3474 252° West 522 601 40,000  Level FlightAware Transoceanic
10:42PM 40.0434 170.1736 252° West 522 601 40,000  Level FlightAware Transoceanic
10:43PM 40.0000 170.0000 266° West 522 601 40,000  Level FlightAware Transoceanic
10:43PM 40.0000 170.0000 266° West 484 557 40,000  Level Oakland Oceanic (ODAPS)
10:44PM 39.9903 169.8284 266° West 522 601 40,000  Level FlightAware Transoceanic
10:45PM 39.9803 169.6569 266° West 522 601 40,000  Level FlightAware Transoceanic
10:46PM 39.9700 169.4854 265° West 522 601 40,000  Level FlightAware Transoceanic
10:47PM 39.9595 169.3140 265° West 522 601 40,000  Level FlightAware Transoceanic
10:48PM 39.9488 169.1426 265° West 522 601 40,000  Level FlightAware Transoceanic
10:49PM 39.9366 168.9536 265° West 484 557 40,000  Level FlightAware Transoceanic
10:50PM 39.9252 168.7794 265° West 484 557 40,000  Level FlightAware Transoceanic
10:51PM 39.9134 168.6052 265° West 484 557 40,000  Level FlightAware Transoceanic
10:52PM 39.9015 168.4311 265° West 484 557 40,000  Level FlightAware Transoceanic
10:53PM 39.8892 168.2571 265° West 484 557 40,000  Level FlightAware Transoceanic
10:54PM 39.8767 168.0831 265° West 484 557 40,000  Level FlightAware Transoceanic
10:55PM 39.8639 167.9092 264° West 484 557 40,000  Level FlightAware Transoceanic
10:56PM 39.8509 167.7354 264° West 484 557 40,000  Level FlightAware Transoceanic
10:57PM 39.8376 167.5616 264° West 484 557 40,000  Level FlightAware Transoceanic
10:57PM 39.8333 167.5500 264° West 470 541 40,000  Level Oakland Oceanic (ODAPS)
10:58PM 39.8240 167.3879 264° West 484 557 40,000  Level FlightAware Transoceanic
10:59PM 39.8102 167.2143 264° West 484 557 40,000  Level FlightAware Transoceanic
11:00PM 39.7962 167.0407 264° West 484 557 40,000  Level FlightAware Transoceanic
11:01PM 39.7818 166.8672 264° West 484 557 40,000  Level FlightAware Transoceanic
11:02PM 39.7673 166.6938 264° West 484 557 40,000  Level FlightAware Transoceanic
11:03PM 39.7506 166.5336 264° West 470 541 40,000  Level FlightAware Transoceanic
11:04PM 39.7360 166.3644 264° West 470 541 40,000  Level FlightAware Transoceanic
11:05PM 39.7211 166.1953 263° West 470 541 40,000  Level FlightAware Transoceanic
11:06PM 39.7059 166.0263 263° West 470 541 40,000  Level FlightAware Transoceanic
11:07PM 39.6906 165.8574 263° West 470 541 40,000  Level FlightAware Transoceanic
11:08PM 39.6749 165.6885 263° West 470 541 40,000  Level FlightAware Transoceanic
11:09PM 39.6591 165.5197 263° West 470 541 40,000  Level FlightAware Transoceanic
11:10PM 39.6429 165.3510 263° West 470 541 40,000 480 Level FlightAware Transoceanic
11:10PM 39.6333 165.1833 263° West 462 532 41,000  Climbing Oakland Oceanic (ODAPS)
11:11PM 39.6266 165.1824 263° West 470 541 40,000 -960 Descending FlightAware Transoceanic
11:12PM 39.6100 165.0139 263° West 470 541 40,000  Level FlightAware Transoceanic
11:13PM 39.5931 164.8454 263° West 470 541 40,000  Level FlightAware Transoceanic
11:14PM 39.5760 164.6770 262° West 470 541 40,000  Level FlightAware Transoceanic
11:15PM 39.5587 164.5087 262° West 470 541 40,000  Level FlightAware Transoceanic
11:16PM 39.5411 164.3405 262° West 470 541 40,000 480 Level FlightAware Transoceanic
11:17PM 39.5288 164.1730 262° West 462 532 41,000 480 Climbing FlightAware Transoceanic
11:18PM 39.5105 164.0049 262° West 462 532 41,000  Level FlightAware Transoceanic
11:19PM 39.4920 163.8369 262° West 462 532 41,000  Level FlightAware Transoceanic
11:20PM 39.4732 163.6690 262° West 462 532 41,000  Level FlightAware Transoceanic
11:21PM 39.4542 163.5012 262° West 462 532 41,000  Level FlightAware Transoceanic
11:22PM 39.4350 163.3335 261° West 462 532 41,000  Level FlightAware Transoceanic
11:23PM 39.4155 163.1659 261° West 462 532 41,000  Level FlightAware Transoceanic
11:24PM 39.3958 162.9983 261° West 462 532 41,000  Level FlightAware Transoceanic
11:25PM 39.3758 162.8309 261° West 462 532 41,000  Level FlightAware Transoceanic
11:26PM 39.3556 162.6636 261° West 462 532 41,000  Level FlightAware Transoceanic
11:27PM 39.3352 162.4963 261° West 462 532 41,000  Level FlightAware Transoceanic
11:28PM 39.3145 162.3292 261° West 462 532 41,000  Level FlightAware Transoceanic
11:29PM 39.2936 162.1621 261° West 462 532 41,000  Level FlightAware Transoceanic
11:30PM 39.2724 161.9952 261° West 462 532 41,000  Level FlightAware Transoceanic
11:31PM 39.2510 161.8283 261° West 462 532 41,000  Level FlightAware Transoceanic
11:32PM 39.2294 161.6616 260° West 462 532 41,000  Level FlightAware Transoceanic
11:33PM 39.2075 161.4949 260° West 462 532 41,000  Level FlightAware Transoceanic
11:34PM 39.1854 161.3284 260° West 462 532 41,000  Level FlightAware Transoceanic
11:35PM 39.1630 161.1620 260° West 462 532 41,000  Level FlightAware Transoceanic
11:36PM 39.1404 160.9957 260° West 462 532 41,000  Level FlightAware Transoceanic
11:37PM 39.1176 160.8294 260° West 462 532 41,000  Level FlightAware Transoceanic
11:38PM 39.0946 160.6633 260° West 462 532 41,000  Level FlightAware Transoceanic
11:39PM 39.0713 160.4973 260° West 462 532 41,000  Level FlightAware Transoceanic
11:40PM 39.0478 160.3314 260° West 462 532 41,000  Level FlightAware Transoceanic
11:41PM 39.0240 160.1657 259° West 462 532 41,000  Level FlightAware Transoceanic
11:42PM 39.0000 160.0000 259° West 462 532 41,000  Level FlightAware Transoceanic
11:43PM 38.9765 159.8469 259° West 462 532 41,000  Level FlightAware Transoceanic
11:44PM 38.9528 159.6940 259° West 462 532 41,000  Level FlightAware Transoceanic
11:45PM 38.9289 159.5411 259° West 462 532 41,000  Level FlightAware Transoceanic
11:46PM 38.9048 159.3884 258° West 462 532 41,000  Level FlightAware Transoceanic
11:47PM 38.8805 159.2357 258° West 462 532 41,000  Level FlightAware Transoceanic
11:48PM 38.8560 159.0831 258° West 462 532 41,000  Level FlightAware Transoceanic
11:49PM 38.8314 158.9307 258° West 462 532 41,000  Level FlightAware Transoceanic
11:50PM 38.8065 158.7784 258° West 462 532 41,000  Level FlightAware Transoceanic
11:51PM 38.7814 158.6261 258° West 462 532 41,000  Level FlightAware Transoceanic
11:52PM 38.7561 158.4740 258° West 462 532 41,000  Level FlightAware Transoceanic
11:53PM 38.7306 158.3220 258° West 462 532 41,000  Level FlightAware Transoceanic
11:54PM 38.7050 158.1701 258° West 462 532 41,000  Level FlightAware Transoceanic
11:55PM 38.6791 158.0183 258° West 462 532 41,000  Level FlightAware Transoceanic
11:56PM 38.6530 157.8666 258° West 462 532 41,000  Level FlightAware Transoceanic
11:57PM 38.6268 157.7150 257° West 462 532 41,000  Level FlightAware Transoceanic
11:58PM 38.6003 157.5636 257° West 462 532 41,000  Level FlightAware Transoceanic
11:59PM 38.5737 157.4122 257° West 462 532 41,000  Level FlightAware Transoceanic
12:00AM 38.5468 157.2610 257° West 462 532 41,000  Level FlightAware Transoceanic
12:01AM 38.5198 157.1099 257° West 462 532 41,000  Level FlightAware Transoceanic
12:02AM 38.4925 156.9588 257° West 462 532 41,000  Level FlightAware Transoceanic
12:03AM 38.4651 156.8080 257° West 462 532 41,000  Level FlightAware Transoceanic
12:04AM 38.4375 156.6572 257° West 462 532 41,000  Level FlightAware Transoceanic
12:05AM 38.4096 156.5065 257° West 462 532 41,000  Level FlightAware Transoceanic
12:06AM 38.3816 156.3560 257° West 462 532 41,000  Level FlightAware Transoceanic
12:07AM 38.3534 156.2055 257° West 462 532 41,000  Level FlightAware Transoceanic
12:08AM 38.3251 156.0552 256° West 462 532 41,000  Level FlightAware Transoceanic
12:09AM 38.2965 155.9050 256° West 462 532 41,000  Level FlightAware Transoceanic
12:10AM 38.2677 155.7549 256° West 462 532 41,000  Level FlightAware Transoceanic
12:11AM 38.2387 155.6050 256° West 462 532 41,000  Level FlightAware Transoceanic
12:12AM 38.2096 155.4551 256° West 462 532 41,000  Level FlightAware Transoceanic
12:13AM 38.1802 155.3054 256° West 462 532 41,000  Level FlightAware Transoceanic
12:14AM 38.1507 155.1558 256° West 462 532 41,000  Level FlightAware Transoceanic
12:15AM 38.1209 155.0063 256° West 462 532 41,000  Level FlightAware Transoceanic
12:16AM 38.0910 154.8570 256° West 462 532 41,000  Level FlightAware Transoceanic
12:17AM 38.0609 154.7077 256° West 462 532 41,000  Level FlightAware Transoceanic
12:18AM 38.0306 154.5586 255° West 462 532 41,000  Level FlightAware Transoceanic
12:19AM 38.0001 154.4097 255° West 462 532 41,000  Level FlightAware Transoceanic
12:20AM 37.9695 154.2608 255° West 462 532 41,000  Level FlightAware Transoceanic
12:21AM 37.9386 154.1120 255° West 462 532 41,000  Level FlightAware Transoceanic
12:22AM 37.9076 153.9634 255° West 462 532 41,000  Level FlightAware Transoceanic
12:23AM 37.8763 153.8150 255° West 462 532 41,000  Level FlightAware Transoceanic
12:24AM 37.8449 153.6666 255° West 462 532 41,000  Level FlightAware Transoceanic
12:25AM 37.8133 153.5184 255° West 462 532 41,000  Level FlightAware Transoceanic
12:26AM 37.7815 153.3703 255° West 462 532 41,000  Level FlightAware Transoceanic
12:27AM 37.7495 153.2223 255° West 462 532 41,000  Level FlightAware Transoceanic
12:28AM 37.7174 153.0744 255° West 462 532 41,000  Level FlightAware Transoceanic
12:29AM 37.6850 152.9267 254° West 462 532 41,000  Level FlightAware Transoceanic
12:30AM 37.6525 152.7791 254° West 462 532 41,000  Level FlightAware Transoceanic
12:31AM 37.6198 152.6317 254° West 462 532 41,000  Level FlightAware Transoceanic
12:32AM 37.5869 152.4843 254° West 462 532 41,000  Level FlightAware Transoceanic
12:33AM 37.5538 152.3371 254° West 462 532 41,000  Level FlightAware Transoceanic
12:34AM 37.5206 152.1900 254° West 462 532 41,000  Level FlightAware Transoceanic
12:35AM 37.4871 152.0431 254° West 462 532 41,000  Level FlightAware Transoceanic
12:36AM 37.4535 151.8963 254° West 462 532 41,000  Level FlightAware Transoceanic
12:37AM 37.4197 151.7496 254° West 462 532 41,000  Level FlightAware Transoceanic
12:38AM 37.3857 151.6031 254° West 462 532 41,000  Level FlightAware Transoceanic
12:39AM 37.3515 151.4567 254° West 462 532 41,000  Level FlightAware Transoceanic
12:40AM 37.3172 151.3104 254° West 462 532 41,000  Level FlightAware Transoceanic
12:41AM 37.2827 151.1643 253° West 462 532 41,000  Level FlightAware Transoceanic
12:42AM 37.2480 151.0182 253° West 462 532 41,000  Level FlightAware Transoceanic
12:43AM 37.2131 150.8724 253° West 462 532 41,000  Level FlightAware Transoceanic
12:44AM 37.1780 150.7266 253° West 462 532 41,000  Level FlightAware Transoceanic
12:45AM 37.1427 150.5810 253° West 462 532 41,000  Level FlightAware Transoceanic
12:46AM 37.1073 150.4356 253° West 462 532 41,000  Level FlightAware Transoceanic
12:47AM 37.0717 150.2903 253° West 462 532 41,000  Level FlightAware Transoceanic
12:48AM 37.0359 150.1451 253° West 462 532 41,000  Level FlightAware Transoceanic
12:49AM 36.9977 149.9909 253° West  Level FlightAware Approximate
12:50AM 36.9971 149.9814 259° West  Level FlightAware Approximate
12:51AM 36.9725 149.8230 259° West  Level FlightAware Approximate
12:52AM 36.9476 149.6648 259° West  Level FlightAware Approximate
12:53AM 36.9226 149.5066 259° West  Level FlightAware Approximate
12:54AM 36.8973 149.3486 259° West  Level FlightAware Approximate
12:55AM 36.8718 149.1907 259° West  Level FlightAware Approximate
12:56AM 36.8461 149.0329 259° West  Level FlightAware Approximate
12:57AM 36.8202 148.8752 258° West  Level FlightAware Approximate
12:58AM 36.7941 148.7175 258° West  Level FlightAware Approximate
12:59AM 36.7678 148.5600 258° West  Level FlightAware Approximate
01:00AM 36.7413 148.4027 258° West  Level FlightAware Approximate
01:01AM 36.7146 148.2454 258° West  Level FlightAware Approximate
01:02AM 36.6876 148.0882 258° West  Level FlightAware Approximate
01:03AM 36.6606 147.9311 258° West  Level FlightAware Approximate
01:04AM 36.6336 147.7741 258° West  Level FlightAware Approximate
01:05AM 36.6065 147.6171 258° West  Level FlightAware Approximate
01:06AM 36.5791 147.4603 258° West  Level FlightAware Approximate
01:07AM 36.5515 147.3036 258° West  Level FlightAware Approximate
01:08AM 36.5237 147.1470 258° West  Level FlightAware Approximate
01:09AM 36.4958 146.9905 258° West  Level FlightAware Approximate
01:10AM 36.4676 146.8341 257° West  Level FlightAware Approximate
01:11AM 36.4392 146.6778 257° West  Level FlightAware Approximate
01:12AM 36.4106 146.5217 257° West  Level FlightAware Approximate
01:13AM 36.3818 146.3656 257° West  Level FlightAware Approximate
01:14AM 36.3528 146.2097 257° West  Level FlightAware Approximate
01:15AM 36.3235 146.0537 257° West  Level FlightAware Approximate
01:16AM 36.2941 145.8978 257° West  Level FlightAware Approximate
01:16AM 36.2020 145.7510 256° West 41,000  Level FlightAware
01:17AM 36.2644 145.7420 257° West  Level FlightAware Approximate
01:18AM 36.2343 145.5864 256° West  Level FlightAware Approximate
01:19AM 36.2037 145.4310 256° West  Level FlightAware Approximate
01:19AM 36.1160 145.2920 257° West 41,000  Level FlightAware
01:20AM 36.1040 145.2120 260° West 478 550 41,000  Level FlightAware
01:21AM 36.0860 145.0910 260° West 478 550 41,000  Level FlightAware
01:21AM 36.0700 144.9890 259° West 600 690 41,000  Level FlightAware
01:22AM 36.0560 144.8900 260° West 473 544 41,000  Level FlightAware
01:23AM 36.0380 144.7690 260° West 475 547 41,000  Level FlightAware
01:23AM 36.0250 144.6780 260° West 473 544 41,000  Level FlightAware
01:24AM 36.0090 144.5710 260° West 470 541 41,000  Level FlightAware
01:25AM 35.9940 144.4660 260° West 457 526 41,000  Level FlightAware
01:25AM 35.9790 144.3690 259° West 455 524 41,000  Level FlightAware
01:26AM 35.9580 144.2290 260° West 453 521 41,000  Level FlightAware
01:27AM 35.9450 144.1460 259° West 453 521 41,000  Level FlightAware
01:27AM 35.9290 144.0340 260° West 722 831 41,000  Level FlightAware
01:28AM 35.9060 143.8850 259° West 449 517 41,000  Level FlightAware
01:29AM 35.8930 143.7960 260° West 448 516 41,000  Level FlightAware
01:29AM 35.8810 143.7210 259° West 448 516 41,000  Level FlightAware
01:30AM 35.8650 143.6180 259° West 449 517 41,000  Level FlightAware
01:31AM 35.8530 143.5450 259° West 449 517 41,000  Level FlightAware
01:31AM 35.8360 143.4320 260° West 737 848 41,000 -120 Level FlightAware
01:32AM 35.8240 143.3560 259° West 449 517 40,900 -1,200 Descending FlightAware
01:33AM 35.8080 143.2540 259° West 453 521 39,600 -2,760 Descending FlightAware
01:33AM 35.7940 143.1660 259° West 446 513 37,500 -2,580 Descending FlightAware
01:34AM 35.7790 143.0750 259° West 448 516 36,400 -3,240 Descending FlightAware
01:34AM 35.7610 142.9630 259° West 459 528 33,200 -2,520 Descending FlightAware
01:35AM 35.7480 142.8830 259° West 459 528 33,200 -1,980 Level FlightAware
01:36AM 35.7300 142.7720 259° West 472 543 30,700 -3,300 Descending FlightAware
01:36AM 35.7160 142.6830 259° West 526 605 29,100 -2,700 Descending FlightAware
01:37AM 35.7030 142.6050 258° West 380 437 27,600 -3,240 Descending FlightAware
01:37AM 35.6910 142.5350 258° West 369 425 25,400 -3,180 Descending FlightAware
01:38AM 35.6810 142.4690 259° West 364 419 24,200 -1,080 Descending FlightAware
01:39AM 35.6700 142.4000 259° West 364 419 24,200  Level FlightAware
01:39AM 35.6600 142.3380 259° West 364 419 24,200 -2,760 Level FlightAware
01:40AM 35.6440 142.2480 258° West 567 652 21,000 -3,780 Descending FlightAware
01:40AM 35.6340 142.1880 258° West 352 405 20,100 -1,620 Descending FlightAware
01:41AM 35.6180 142.0970 258° West 368 423 18,800 -1,680 Descending FlightAware
01:42AM 35.6240 141.9950 274° West 339 390 17,400 -1,620 Descending FlightAware
01:43AM 35.6410 141.9090 284° West 283 326 16,300 -1,080 Descending FlightAware
01:43AM 35.6540 141.8480 285° West 333 383 15,900 -1,080 Descending FlightAware
01:44AM 35.6670 141.7850 284° West 329 379 15,100 -840 Descending FlightAware
01:44AM 35.6790 141.7250 284° West 331 381 15,000 -120 Descending FlightAware
01:45AM 35.6970 141.6330 284° West 302 348 15,000 -600 Level FlightAware
01:46AM 35.7100 141.5700 284° West 299 344 14,200 -1,260 Descending FlightAware
01:46AM 35.7200 141.5200 284° West 298 343 13,600 -840 Descending FlightAware
01:47AM 35.7350 141.4430 284° West 296 341 13,100 -660 Descending FlightAware
01:48AM 35.7500 141.3660 284° West 295 339 12,600 -780 Descending FlightAware
01:49AM 35.7650 141.2940 284° West 385 443 12,000 -780 Descending FlightAware
01:49AM 35.7750 141.2430 284° West 293 337 11,700 -600 Descending FlightAware
01:50AM 35.7870 141.1810 283° West 290 334 11,300 -600 Descending FlightAware
01:50AM 35.7990 141.1230 284° West 288 331 11,000 -600 Descending FlightAware
01:51AM 35.8090 141.0680 283° West 285 328 10,600 -600 Descending FlightAware
01:52AM 35.8210 141.0120 285° West 284 327 10,300 -600 Descending FlightAware
01:52AM 35.8310 140.9590 283° West 284 327 9,900 -660 Descending FlightAware
01:53AM 35.8370 140.9280 283° West 286 329 9,700 -600 Descending FlightAware
01:53AM 35.8430 140.8940 282° West 286 329 9,500 -600 Descending FlightAware
01:53AM 35.8490 140.8610 283° West 281 323 9,300 -420 Descending FlightAware
01:54AM 35.8550 140.8210 280° West 283 326 9,200 -180 Descending FlightAware
01:54AM 35.8580 140.7970 279° West 283 326 9,200  Level FlightAware
01:54AM 35.8630 140.7590 279° West 284 327 9,200  Level FlightAware
01:55AM 35.8700 140.7360 291° West 288 331 9,200  Level FlightAware
01:55AM 35.8780 140.7220 305° West 287 330 9,200  Level FlightAware
01:55AM 35.9030 140.6810 307° West 293 337 9,200  Level FlightAware
01:56AM 35.9220 140.6490 306° West 292 336 9,200 -120 Level FlightAware
01:56AM 35.9420 140.6170 308° West 292 336 9,100 -660 Descending FlightAware
01:56AM 35.9610 140.5860 307° West 290 334 8,700 -1,140 Descending FlightAware
01:57AM 35.9740 140.5630 305° West 286 329 8,400 -1,140 Descending FlightAware
01:57AM 35.9900 140.5390 309° West 282 325 8,000 -1,260 Descending FlightAware
01:57AM 36.0050 140.5130 306° West 280 322 7,600 -1,140 Descending FlightAware
01:58AM 36.0190 140.4900 307° West 278 320 7,300 -660 Descending FlightAware
01:58AM 36.0340 140.4640 306° West 276 318 7,200 -600 Descending FlightAware
01:58AM 36.0430 140.4490 307° West 272 313 7,000 -1,140 Descending FlightAware
01:59AM 36.0590 140.4240 308° West 275 316 6,600 -1,200 Descending FlightAware
01:59AM 36.0710 140.4040 307° West 276 318 6,300 -660 Descending FlightAware
01:59AM 36.0880 140.3760 307° West 275 316 6,200 -180 Descending FlightAware
01:59AM 36.1020 140.3520 306° West 263 303 6,200  Level FlightAware
02:00AM 36.1130 140.3330 306° West 245 282 6,200  Level FlightAware
02:00AM 36.1180 140.3180 292° West 231 266 6,200  Level FlightAware
02:00AM 36.1200 140.3070 283° West 225 259 6,200  Level FlightAware
02:00AM 36.1200 140.2820 270° West 222 255 6,200 -300 Level FlightAware
02:01AM 36.1200 140.2570 270° West 222 255 6,000 -1,020 Descending FlightAware
02:01AM 36.1190 140.2290 267° West 224 258 5,500 -1,200 Descending FlightAware
02:01AM 36.1190 140.2180 270° West 225 259 5,400 -900 Descending FlightAware
02:01AM 36.1140 140.2030 248° West 224 258 5,200 -1,200 Descending FlightAware
02:02AM 36.1090 140.1960 229° Southwest 223 257 5,000 -1,140 Descending FlightAware
02:02AM 36.1030 140.1890 223° Southwest 224 258 4,900 -1,140 Descending FlightAware
02:02AM 36.0890 140.1800 207° Southwest 224 258 4,600 -960 Descending FlightAware
02:02AM 36.0780 140.1770 192° South 224 258 4,500 -720 Descending FlightAware
02:03AM 36.0540 140.1770 180° South 218 251 4,200 -360 Descending FlightAware
02:03AM 36.0280 140.1840 168° South 202 232 4,200  Level FlightAware
02:03AM 36.0180 140.1910 150° Southeast 207 238 4,200  Level FlightAware
02:04AM 36.0020 140.2030 149° Southeast 201 231 4,200  Level FlightAware
02:04AM 35.9820 140.2180 149° Southeast 200 230 4,200  Level FlightAware
02:04AM 35.9670 140.2290 149° Southeast 200 230 4,200  Level FlightAware
02:05AM 35.9490 140.2420 150° Southeast 191 220 4,200 -480 Level FlightAware
02:05AM 35.9360 140.2510 151° Southeast 188 216 3,900 -1,140 Descending FlightAware
02:05AM 35.9210 140.2620 149° Southeast 191 220 3,500 -1,140 Descending FlightAware
02:06AM 35.9020 140.2760 149° Southeast 190 219 3,100 -1,080 Descending FlightAware
02:06AM 35.8930 140.2820 152° Southeast 188 216 2,900 -1,020 Descending FlightAware
02:06AM 35.8750 140.2960 148° Southeast 184 212 2,500 -900 Descending FlightAware
02:07AM 35.8620 140.3050 151° Southeast 181 208 2,300 -900 Descending FlightAware
02:07AM 35.8460 140.3160 151° Southeast 163 188 1,900 -960 Descending FlightAware
02:07AM 35.8320 140.3260 150° Southeast 163 188 1,600 -960 Descending FlightAware
02:08AM 35.8250 140.3320 145° Southeast 159 183 1,400 -900 Descending FlightAware
02:08AM 35.8100 140.3420 152° Southeast 142 163 1,100 -720 Descending FlightAware
02:08AM 35.7990 140.3500 149° Southeast 140 161 900 -720 Descending FlightAware
02:09AM 35.7860 140.3600 148° Southeast 142 163 600 -780 Descending FlightAware
02:09AM 35.7810 140.3630 154° Southeast 144 166 500 -180 Descending FlightAware
02:09AM 35.7650 140.3750 149° Southeast 144 166 500  Level FlightAware
02:12AM 35.7500 140.3833 253° West  Level FlightAware Approximate
02:13AM 35.7647 140.3864 253° West  Level Estimated
02:14AM 35.7647 140.3864 253° West  Level Estimated
02:15AM 35.7647 140.3864 253° West  Level Estimated